Time;durP1;ratioP1;P1;durP2;ratioP2;P2;SDS_P1;SDS_P2;PMS_P1;PMS_P2;Temp;Humidity;BMP_temperature;BMP_pressure;BME280_temperature;BME280_humidity;BME280_pressure;Samples;Min_cycle;Max_cycle;Signal;HPM_P1;HPM_P2
2023/06/09 00:42:46;;;;;;;9.02;8.73;;;14.60;99.90;;;;;;5027261;28;20275;-89
2023/06/09 00:46:30;;;;;;;8.97;8.67;;;14.50;99.90;;;;;;4961851;28;20234;-89
2023/06/09 00:50:20;;;;;;;;;;;;;;;;;;;;;
2023/06/09 01:04:21;;;;;;;9.02;8.73;;;14.30;99.90;;;;;;4968739;28;20325;-90
2023/06/09 01:07:00;;;;;;;9.10;8.80;;;14.30;99.90;;;;;;5045284;28;20227;-90
2023/06/09 01:09:35;;;;;;;9.13;8.82;;;14.30;99.90;;;;;;5044697;28;20215;-90
2023/06/09 01:12:15;;;;;;;9.27;8.98;;;14.30;99.90;;;;;;5051656;28;20203;-89
2023/06/09 01:14:51;;;;;;;8.97;8.67;;;14.30;99.90;;;;;;5058931;28;20223;-90
2023/06/09 01:17:23;;;;;;;9.17;8.87;;;14.30;99.90;;;;;;5060174;28;20246;-89
2023/06/09 01:20:04;;;;;;;9.30;9.00;;;14.30;99.90;;;;;;5060615;28;20208;-91
2023/06/09 01:22:45;;;;;;;9.17;8.87;;;14.30;99.90;;;;;;5062715;28;20213;-89
2023/06/09 01:25:45;;;;;;;9.00;8.70;;;14.30;99.90;;;;;;5062962;28;20216;-89
2023/06/09 01:28:20;;;;;;;8.90;8.60;;;14.30;99.90;;;;;;5056221;28;20238;-89
2023/06/09 01:30:51;;;;;;;8.90;8.60;;;14.20;99.90;;;;;;5052480;28;20222;-90
2023/06/09 01:33:40;;;;;;;;;;;;;;;;;;;;;
2023/06/09 01:36:08;;;;;;;8.95;8.65;;;14.20;99.90;;;;;;5047699;28;20227;-90
2023/06/09 01:38:37;;;;;;;9.00;8.70;;;14.20;99.90;;;;;;5048458;28;20239;-90
2023/06/09 01:43:52;;;;;;;8.90;8.60;;;14.20;99.90;;;;;;5047757;28;20224;-90
2023/06/09 01:46:22;;;;;;;9.00;8.70;;;14.10;99.90;;;;;;5048362;28;20227;-90
2023/06/09 01:51:56;;;;;;;9.10;8.80;;;14.00;99.90;;;;;;5046758;28;20251;-90
2023/06/09 01:54:35;;;;;;;8.93;8.63;;;14.00;99.90;;;;;;5047368;28;20250;-91
2023/06/09 01:57:12;;;;;;;9.00;8.70;;;13.90;99.90;;;;;;5047897;28;20230;-90
2023/06/09 01:59:49;;;;;;;8.80;8.50;;;13.90;99.90;;;;;;5048116;28;20242;-90
2023/06/09 02:02:20;;;;;;;8.90;8.60;;;13.80;99.90;;;;;;5047581;28;20239;-90
2023/06/09 02:04:51;;;;;;;9.07;8.77;;;13.80;99.90;;;;;;5047451;28;20306;-90
2023/06/09 02:07:21;;;;;;;8.93;8.63;;;13.80;99.90;;;;;;5047007;28;20289;-90
2023/06/09 02:09:50;;;;;;;9.20;8.90;;;13.70;99.90;;;;;;5046889;28;20242;-89
2023/06/09 02:12:20;;;;;;;9.10;8.80;;;13.70;99.90;;;;;;5047288;28;20228;-91
2023/06/09 02:14:48;;;;;;;9.20;8.90;;;13.70;99.90;;;;;;5047313;28;20227;-90
2023/06/09 02:17:21;;;;;;;9.20;8.90;;;13.70;99.90;;;;;;5058904;28;20255;-90
2023/06/09 02:19:49;;;;;;;9.10;8.80;;;13.70;99.90;;;;;;5062539;28;20216;-89
2023/06/09 02:22:17;;;;;;;9.00;8.70;;;13.70;99.90;;;;;;5062131;28;20216;-89
2023/06/09 02:24:45;;;;;;;9.10;8.80;;;13.70;99.90;;;;;;5059850;28;20227;-90
2023/06/09 02:27:17;;;;;;;9.00;8.70;;;13.60;99.90;;;;;;5061206;28;20258;-89
2023/06/09 02:29:54;;;;;;;9.20;8.90;;;13.60;99.90;;;;;;5060490;28;20236;-89
2023/06/09 02:32:25;;;;;;;9.50;9.20;;;13.60;99.90;;;;;;5050563;28;20290;-90
2023/06/09 02:34:55;;;;;;;9.00;8.70;;;13.60;99.90;;;;;;5046051;28;20232;-90
2023/06/09 02:37:23;;;;;;;9.00;8.70;;;13.60;99.90;;;;;;5047209;28;20228;-89
2023/06/09 02:39:51;;;;;;;9.10;8.80;;;13.60;99.90;;;;;;5045950;28;20262;-90
2023/06/09 02:42:21;;;;;;;9.20;8.90;;;13.50;99.90;;;;;;5045585;28;20251;-90
2023/06/09 02:44:59;;;;;;;9.33;9.03;;;13.50;99.90;;;;;;5045676;28;20232;-89
2023/06/09 02:47:29;;;;;;;9.30;9.00;;;13.50;99.90;;;;;;5047154;28;20290;-90
2023/06/09 02:49:58;;;;;;;9.23;8.93;;;13.40;99.90;;;;;;5046234;28;20239;-89
2023/06/09 02:52:28;;;;;;;9.30;9.00;;;13.40;99.90;;;;;;5047008;28;20292;-89
2023/06/09 02:54:57;;;;;;;9.20;8.90;;;13.40;99.90;;;;;;5046353;28;20227;-89
2023/06/09 02:57:28;;;;;;;9.50;9.20;;;13.40;99.90;;;;;;5046664;28;20235;-89
2023/06/09 02:59:59;;;;;;;9.73;9.43;;;13.30;99.90;;;;;;5046155;28;20282;-90
2023/06/09 03:02:28;;;;;;;9.77;9.47;;;13.40;99.90;;;;;;5046269;28;20242;-89
2023/06/09 03:04:56;;;;;;;9.60;9.30;;;13.40;99.90;;;;;;5046122;28;20246;-89
2023/06/09 03:07:25;;;;;;;9.50;9.20;;;13.30;99.90;;;;;;5046316;28;20231;-89
2023/06/09 03:09:56;;;;;;;9.70;9.40;;;13.40;99.90;;;;;;5046543;28;20251;-89
2023/06/09 03:12:24;;;;;;;9.60;9.30;;;13.30;99.90;;;;;;5046529;28;20231;-89
2023/06/09 03:14:52;;;;;;;9.93;9.63;;;13.30;99.90;;;;;;5046794;28;20223;-89
2023/06/09 03:17:31;;;;;;;9.60;9.30;;;13.40;99.90;;;;;;5046153;28;20227;-89
2023/06/09 03:20:00;;;;;;;9.60;9.30;;;13.40;99.90;;;;;;5046330;28;20258;-89
2023/06/09 03:22:30;;;;;;;9.60;9.30;;;13.30;99.90;;;;;;5046621;28;20232;-89
2023/06/09 03:24:59;;;;;;;9.63;9.33;;;13.30;99.90;;;;;;5046294;28;20258;-89
2023/06/09 03:27:29;;;;;;;9.67;9.37;;;13.30;99.90;;;;;;5047655;28;20231;-88
2023/06/09 03:29:58;;;;;;;9.60;9.30;;;13.30;99.90;;;;;;5046309;28;20230;-89
2023/06/09 03:32:30;;;;;;;9.50;9.20;;;13.20;99.90;;;;;;5046271;28;20220;-89
2023/06/09 03:34:58;;;;;;;9.50;9.20;;;13.30;99.90;;;;;;5047068;28;20224;-90
2023/06/09 03:37:26;;;;;;;9.40;9.10;;;13.30;99.90;;;;;;5046230;28;20317;-89
2023/06/09 03:39:56;;;;;;;9.40;9.10;;;13.30;99.90;;;;;;5047084;28;20239;-89
2023/06/09 03:42:26;;;;;;;9.50;9.20;;;13.30;99.90;;;;;;5046730;28;20270;-89
2023/06/09 03:44:58;;;;;;;9.27;8.97;;;13.30;99.90;;;;;;5045409;28;20216;-89
2023/06/09 03:47:32;;;;;;;9.50;9.20;;;13.30;99.90;;;;;;5046084;28;20311;-89
2023/06/09 03:50:02;;;;;;;9.30;9.00;;;13.30;99.90;;;;;;5045648;28;20219;-89
2023/06/09 03:52:31;;;;;;;9.40;9.10;;;13.40;99.90;;;;;;5045951;28;20289;-89
2023/06/09 03:55:01;;;;;;;9.50;9.20;;;13.40;99.90;;;;;;5045909;28;20239;-88
2023/06/09 03:57:30;;;;;;;9.27;8.97;;;13.40;99.90;;;;;;5046350;28;20231;-89
2023/06/09 04:00:00;;;;;;;9.50;9.20;;;13.40;99.90;;;;;;5046529;28;20239;-89
2023/06/09 04:02:38;;;;;;;9.13;8.83;;;13.40;99.90;;;;;;5045925;28;20219;-89
2023/06/09 04:05:07;;;;;;;9.03;8.73;;;13.40;99.90;;;;;;5045375;28;20290;-89
2023/06/09 04:07:39;;;;;;;9.37;9.07;;;13.40;99.90;;;;;;5046157;28;20230;-89
2023/06/09 04:10:09;;;;;;;9.13;8.83;;;13.40;99.90;;;;;;5045895;28;20235;-89
2023/06/09 04:12:47;;;;;;;9.13;8.83;;;13.40;99.90;;;;;;5046014;28;20270;-89
2023/06/09 04:15:16;;;;;;;9.10;8.80;;;13.50;99.90;;;;;;5045689;28;20243;-89
2023/06/09 04:17:48;;;;;;;9.33;9.03;;;13.50;99.90;;;;;;5043512;28;20260;-89
2023/06/09 04:20:16;;;;;;;9.17;8.87;;;13.50;99.90;;;;;;5043716;28;20235;-88
2023/06/09 04:22:54;;;;;;;9.40;9.10;;;13.50;99.90;;;;;;5043647;28;20231;-89
2023/06/09 04:25:25;;;;;;;9.27;8.97;;;13.50;99.90;;;;;;5043417;28;20714;-89
2023/06/09 04:27:53;;;;;;;9.20;8.90;;;13.60;99.90;;;;;;5043867;28;20247;-89
2023/06/09 04:30:25;;;;;;;9.10;8.80;;;13.60;99.90;;;;;;5042992;28;20227;-89
2023/06/09 04:33:03;;;;;;;9.20;8.90;;;13.60;99.90;;;;;;5043378;28;20231;-88
2023/06/09 04:35:40;;;;;;;9.10;8.80;;;13.60;99.90;;;;;;5043309;28;20219;-89
2023/06/09 04:38:09;;;;;;;9.13;8.83;;;13.70;99.90;;;;;;5043707;28;20290;-89
2023/06/09 04:43:27;;;;;;;8.97;8.67;;;13.70;99.90;;;;;;5042070;28;20242;-89
2023/06/09 04:45:56;;;;;;;9.03;8.73;;;13.70;99.90;;;;;;5043100;28;20255;-88
2023/06/09 04:48:27;;;;;;;9.17;8.87;;;13.70;99.90;;;;;;5043469;28;20266;-90
2023/06/09 04:53:39;;;;;;;9.00;8.70;;;13.70;99.90;;;;;;5042691;28;20313;-89
2023/06/09 04:56:08;;;;;;;8.90;8.60;;;13.80;99.90;;;;;;5043335;28;20238;-89
2023/06/09 04:58:39;;;;;;;8.90;8.60;;;14.00;99.90;;;;;;5044336;28;20294;-88
2023/06/09 05:01:07;;;;;;;9.00;8.70;;;14.10;99.90;;;;;;5043497;28;20227;-89
2023/06/09 05:03:48;;;;;;;8.80;8.60;;;14.20;99.90;;;;;;5044253;28;20247;-90
2023/06/09 05:06:16;;;;;;;8.85;8.65;;;14.30;99.90;;;;;;5044818;28;20231;-89
2023/06/09 05:08:44;;;;;;;8.50;8.30;;;14.40;99.90;;;;;;5044025;28;20235;-89
2023/06/09 05:11:14;;;;;;;8.60;8.40;;;14.50;99.90;;;;;;5044086;28;20277;-88
2023/06/09 05:13:44;;;;;;;8.45;8.25;;;14.60;99.90;;;;;;5044470;28;20227;-89
2023/06/09 05:16:15;;;;;;;8.57;8.38;;;14.70;99.90;;;;;;5050455;28;20203;-89
2023/06/09 05:21:30;;;;;;;8.57;8.38;;;14.80;99.90;;;;;;5060415;28;20199;-88
2023/06/09 05:23:58;;;;;;;8.52;8.32;;;14.90;99.90;;;;;;5059689;28;20229;-88
2023/06/09 05:26:29;;;;;;;8.48;8.27;;;15.00;99.90;;;;;;5056841;28;20220;-87
2023/06/09 05:28:58;;;;;;;8.70;8.50;;;15.20;99.90;;;;;;5051161;28;20235;-87
2023/06/09 05:31:37;;;;;;;8.68;8.48;;;15.30;99.90;;;;;;5053691;28;20228;-89
2023/06/09 05:36:52;;;;;;;9.05;8.82;;;15.50;99.90;;;;;;5056320;28;20292;-88
2023/06/09 05:39:21;;;;;;;9.20;8.90;;;15.50;99.90;;;;;;5055902;28;20263;-88
2023/06/09 05:41:50;;;;;;;8.63;8.43;;;15.60;99.90;;;;;;5047444;28;20231;-89
2023/06/09 05:44:18;;;;;;;8.80;8.60;;;15.70;99.90;;;;;;5068937;22;20223;-80
2023/06/09 05:46:46;;;;;;;8.43;8.23;;;15.80;99.90;;;;;;5043425;28;21023;-80
2023/06/09 05:49:20;;;;;;;9.20;8.90;;;16.00;99.90;;;;;;5044265;28;20231;-80
2023/06/09 05:51:49;;;;;;;8.80;8.60;;;16.20;99.90;;;;;;5045639;28;20255;-81
2023/06/09 05:54:18;;;;;;;8.85;8.65;;;16.40;99.90;;;;;;5040727;28;20251;-80
2023/06/09 05:56:48;;;;;;;8.70;8.50;;;16.50;99.90;;;;;;5023875;28;21075;-79
2023/06/09 05:59:20;;;;;;;8.60;8.40;;;16.70;99.90;;;;;;5024796;28;20232;-80
2023/06/09 06:01:48;;;;;;;8.80;8.60;;;16.70;99.90;;;;;;5022418;28;20236;-80
2023/06/09 06:04:18;;;;;;;9.27;8.98;;;16.80;99.90;;;;;;5022771;28;20327;-80
2023/06/09 06:06:46;;;;;;;9.43;9.13;;;16.80;99.90;;;;;;5024934;28;20330;-79
2023/06/09 06:09:14;;;;;;;9.40;9.10;;;16.90;99.90;;;;;;5023126;28;20236;-80
2023/06/09 06:11:44;;;;;;;9.50;9.20;;;17.00;99.90;;;;;;5024944;28;20234;-79
2023/06/09 06:14:13;;;;;;;9.55;9.25;;;17.10;99.90;;;;;;5025245;28;20231;-79
2023/06/09 06:16:41;;;;;;;10.13;9.82;;;17.20;99.90;;;;;;5028329;28;20247;-79
2023/06/09 06:19:13;;;;;;;10.07;9.77;;;17.30;99.90;;;;;;5031204;28;20236;-81
2023/06/09 06:21:47;;;;;;;10.30;10.00;;;17.40;99.90;;;;;;5030305;28;20236;-80
2023/06/09 06:24:14;;;;;;;10.15;9.85;;;17.50;99.90;;;;;;5027361;28;21082;-80
2023/06/09 06:26:43;;;;;;;10.27;9.98;;;17.60;99.90;;;;;;5026451;28;20260;-80
2023/06/09 06:29:12;;;;;;;10.10;9.80;;;17.70;99.90;;;;;;5025560;28;21099;-80
2023/06/09 06:31:41;;;;;;;10.50;10.20;;;17.90;99.90;;;;;;5027150;28;20268;-80
2023/06/09 06:34:11;;;;;;;10.50;10.20;;;18.00;99.90;;;;;;5025378;28;20232;-80
2023/06/09 06:36:40;;;;;;;10.50;10.20;;;18.10;99.90;;;;;;5025098;28;20243;-80
2023/06/09 06:39:19;;;;;;;10.30;10.00;;;18.20;99.90;;;;;;5025092;28;20236;-80
2023/06/09 06:41:48;;;;;;;10.57;10.27;;;18.30;99.90;;;;;;5029687;28;20263;-79
2023/06/09 06:44:17;;;;;;;10.40;10.10;;;18.40;99.90;;;;;;5027008;28;20275;-80
2023/06/09 06:46:47;;;;;;;10.80;10.50;;;18.50;99.90;;;;;;5018308;28;20229;-80
2023/06/09 06:49:15;;;;;;;10.90;10.60;;;18.60;99.90;;;;;;5025224;28;20236;-80
2023/06/09 06:51:47;;;;;;;10.70;10.40;;;18.80;99.90;;;;;;5024085;28;20239;-79
2023/06/09 06:54:17;;;;;;;10.70;10.40;;;19.00;99.90;;;;;;5023953;28;20238;-79
2023/06/09 06:56:44;;;;;;;10.93;10.63;;;19.10;99.90;;;;;;5025010;28;20232;-80
2023/06/09 06:59:15;;;;;;;10.88;10.57;;;19.20;99.90;;;;;;5025007;28;20244;-80
2023/06/09 07:01:44;;;;;;;11.20;10.90;;;19.20;99.90;;;;;;5022962;28;20421;-79
2023/06/09 07:04:12;;;;;;;10.80;10.50;;;19.30;99.90;;;;;;5022134;28;20240;-79
2023/06/09 07:06:41;;;;;;;10.60;10.30;;;19.40;99.90;;;;;;5022736;28;20324;-79
2023/06/09 07:09:09;;;;;;;10.57;10.27;;;19.50;99.90;;;;;;5023600;28;20235;-79
2023/06/09 07:11:44;;;;;;;10.27;9.98;;;19.70;99.90;;;;;;5028553;28;20228;-79
2023/06/09 07:14:11;;;;;;;10.30;10.00;;;19.80;99.90;;;;;;5022391;28;20319;-78
2023/06/09 07:16:39;;;;;;;10.55;10.25;;;19.70;99.90;;;;;;5022526;28;20235;-79
2023/06/09 07:19:08;;;;;;;10.50;10.20;;;19.90;99.90;;;;;;5022050;28;20243;-79
2023/06/09 07:21:37;;;;;;;10.35;10.05;;;20.10;99.90;;;;;;5023625;28;20291;-79
2023/06/09 07:24:08;;;;;;;10.50;10.20;;;20.20;99.90;;;;;;5029202;28;20228;-79
2023/06/09 07:26:36;;;;;;;10.80;10.50;;;20.30;99.90;;;;;;5031151;28;20232;-79
2023/06/09 07:29:06;;;;;;;10.70;10.40;;;20.30;99.90;;;;;;5030057;28;20236;-80
2023/06/09 07:31:34;;;;;;;10.50;10.20;;;20.50;99.90;;;;;;5024740;28;20243;-80
2023/06/09 07:34:05;;;;;;;10.52;10.23;;;20.70;99.90;;;;;;5023655;28;20232;-80
2023/06/09 07:36:35;;;;;;;10.60;10.30;;;20.90;99.90;;;;;;5023227;28;20224;-81
2023/06/09 07:39:03;;;;;;;10.50;10.20;;;21.00;99.90;;;;;;5022353;28;20246;-80
2023/06/09 07:41:31;;;;;;;10.60;10.30;;;21.10;99.90;;;;;;5022211;28;20240;-80
2023/06/09 07:44:01;;;;;;;10.68;10.38;;;21.10;99.90;;;;;;5023084;28;20797;-80
2023/06/09 07:46:32;;;;;;;10.82;10.52;;;21.10;99.90;;;;;;5022705;28;20232;-79
2023/06/09 07:49:01;;;;;;;10.63;10.32;;;21.00;99.90;;;;;;5025444;28;20246;-80
2023/06/09 07:51:29;;;;;;;10.60;10.30;;;21.00;99.90;;;;;;5024809;28;20236;-79
2023/06/09 07:53:58;;;;;;;10.80;10.50;;;21.10;99.90;;;;;;5021389;28;20235;-79
2023/06/09 07:56:27;;;;;;;10.60;10.30;;;21.30;99.90;;;;;;5021362;28;20224;-79
2023/06/09 07:58:54;;;;;;;10.40;10.10;;;21.40;99.90;;;;;;5021550;28;20315;-79
2023/06/09 08:01:21;;;;;;;10.25;9.95;;;21.50;99.90;;;;;;5026458;28;20264;-80
2023/06/09 08:03:51;;;;;;;10.48;10.18;;;21.60;99.90;;;;;;5019867;28;20228;-78
2023/06/09 08:06:20;;;;;;;10.30;10.00;;;21.60;99.90;;;;;;5022308;28;20224;-78
2023/06/09 08:08:49;;;;;;;10.20;9.90;;;21.80;99.90;;;;;;5020755;28;20243;-79
2023/06/09 08:11:17;;;;;;;10.45;10.15;;;21.80;99.90;;;;;;5023062;28;20313;-79
2023/06/09 08:13:45;;;;;;;10.23;9.93;;;21.90;99.90;;;;;;5009476;28;21118;-79
2023/06/09 08:16:12;;;;;;;10.73;10.43;;;22.10;99.90;;;;;;5007147;28;20229;-79
2023/06/09 08:18:40;;;;;;;10.70;10.40;;;22.20;99.90;;;;;;5009771;28;20237;-79
2023/06/09 08:21:11;;;;;;;10.70;10.40;;;22.40;99.90;;;;;;5017282;28;20246;-78
2023/06/09 08:23:42;;;;;;;10.90;10.60;;;22.60;99.90;;;;;;5016210;28;20318;-78
2023/06/09 08:26:11;;;;;;;10.93;10.63;;;22.80;99.90;;;;;;5016272;28;20320;-79
2023/06/09 08:28:39;;;;;;;11.13;10.82;;;23.10;99.90;;;;;;5014933;28;20235;-78
2023/06/09 08:31:08;;;;;;;11.18;10.88;;;23.20;99.90;;;;;;5011241;28;20237;-78
2023/06/09 08:33:36;;;;;;;10.70;10.40;;;23.40;99.90;;;;;;5003880;28;20233;-79
2023/06/09 08:36:05;;;;;;;10.90;10.60;;;23.50;99.90;;;;;;5015449;28;20230;-78
2023/06/09 08:38:36;;;;;;;10.90;10.60;;;23.60;99.90;;;;;;5023125;28;20238;-78
2023/06/09 08:41:08;;;;;;;10.60;10.30;;;23.60;99.90;;;;;;5021317;28;20296;-79
2023/06/09 08:43:36;;;;;;;10.70;10.40;;;23.60;99.90;;;;;;5022525;28;20234;-80
2023/06/09 08:46:07;;;;;;;10.60;10.30;;;23.60;99.90;;;;;;5017709;28;20270;-78
2023/06/09 08:48:42;;;;;;;10.68;10.38;;;23.90;99.90;;;;;;5019329;28;20232;-78
2023/06/09 08:51:12;;;;;;;11.18;10.88;;;24.20;99.90;;;;;;5014867;28;20240;-80
2023/06/09 08:53:42;;;;;;;11.13;10.82;;;24.40;99.90;;;;;;5021628;28;20239;-78
2023/06/09 08:56:11;;;;;;;10.90;10.60;;;24.40;99.90;;;;;;5012700;28;20239;-79
2023/06/09 08:58:41;;;;;;;10.73;10.43;;;24.40;99.90;;;;;;5019594;28;20236;-79
2023/06/09 09:01:09;;;;;;;11.00;10.70;;;24.70;99.90;;;;;;5017843;28;20332;-81
2023/06/09 09:03:37;;;;;;;10.80;10.50;;;24.90;99.90;;;;;;5016666;28;20255;-79
2023/06/09 09:06:05;;;;;;;10.90;10.60;;;25.20;99.90;;;;;;5023825;28;20236;-79
2023/06/09 09:08:32;;;;;;;11.07;10.77;;;25.60;99.90;;;;;;5021853;28;20268;-80
2023/06/09 09:11:01;;;;;;;11.20;10.90;;;25.90;99.90;;;;;;5021005;28;20274;-78
2023/06/09 09:13:30;;;;;;;11.10;10.80;;;26.00;99.90;;;;;;5007872;28;20228;-79
2023/06/09 09:15:59;;;;;;;11.38;11.07;;;25.90;99.90;;;;;;5021556;28;20236;-79
2023/06/09 09:18:32;;;;;;;11.20;10.90;;;25.90;99.90;;;;;;5015662;28;20259;-80
2023/06/09 09:21:01;;;;;;;10.95;10.65;;;26.10;99.90;;;;;;5021162;28;20242;-80
2023/06/09 09:23:32;;;;;;;10.80;10.50;;;26.20;99.90;;;;;;5021929;28;20399;-79
2023/06/09 09:26:03;;;;;;;10.52;10.23;;;26.10;99.90;;;;;;5022237;28;20232;-79
2023/06/09 09:28:40;;;;;;;10.73;10.43;;;26.10;99.90;;;;;;5021686;28;20286;-80
2023/06/09 09:31:09;;;;;;;10.65;10.35;;;26.20;99.90;;;;;;5014580;28;20232;-80
2023/06/09 09:33:49;;;;;;;10.50;10.20;;;26.50;99.90;;;;;;5021708;28;20251;-80
2023/06/09 09:36:19;;;;;;;10.80;10.50;;;26.40;99.90;;;;;;5015088;28;20240;-80
2023/06/09 09:38:47;;;;;;;10.52;10.23;;;26.30;99.90;;;;;;5021854;28;20259;-80
2023/06/09 09:41:18;;;;;;;10.63;10.32;;;26.20;99.90;;;;;;5021929;28;20240;-81
2023/06/09 09:43:47;;;;;;;10.85;10.55;;;26.50;99.90;;;;;;5022883;28;20231;-80
2023/06/09 09:46:23;;;;;;;10.90;10.60;;;26.90;99.90;;;;;;5023890;28;20220;-80
2023/06/09 09:48:54;;;;;;;10.80;10.50;;;26.80;99.90;;;;;;5025514;28;20240;-80
2023/06/09 09:51:24;;;;;;;10.50;10.20;;;26.90;99.90;;;;;;5024832;28;20232;-79
2023/06/09 09:53:53;;;;;;;10.75;10.45;;;27.10;99.90;;;;;;5025573;28;20303;-79
2023/06/09 09:56:23;;;;;;;10.77;10.48;;;27.30;99.90;;;;;;5022182;28;20225;-79
2023/06/09 09:58:54;;;;;;;10.70;10.40;;;27.40;99.90;;;;;;5014734;28;20288;-80
2023/06/09 10:01:25;;;;;;;10.65;10.35;;;27.60;99.90;;;;;;5024352;28;20236;-80
2023/06/09 10:03:54;;;;;;;10.90;10.60;;;27.40;99.90;;;;;;5014268;28;20241;-81
2023/06/09 10:06:30;;;;;;;10.95;10.65;;;27.20;99.90;;;;;;5014764;28;20216;-81
2023/06/09 10:09:08;;;;;;;10.90;10.60;;;27.10;99.90;;;;;;5024564;28;20240;-80
2023/06/09 10:11:39;;;;;;;10.80;10.50;;;27.30;99.90;;;;;;5027757;28;20234;-80
2023/06/09 10:14:07;;;;;;;10.90;10.60;;;27.20;99.90;;;;;;5020777;28;20220;-80
2023/06/09 10:16:39;;;;;;;10.98;10.68;;;26.90;99.90;;;;;;5022078;28;20228;-80
2023/06/09 10:19:07;;;;;;;11.00;10.70;;;26.80;99.90;;;;;;5018403;28;20295;-80
2023/06/09 10:21:38;;;;;;;11.07;10.77;;;27.40;99.90;;;;;;5029410;28;20228;-80
2023/06/09 10:24:10;;;;;;;11.40;11.10;;;27.80;99.90;;;;;;5026844;28;20236;-79
2023/06/09 10:26:39;;;;;;;11.18;10.88;;;27.90;99.90;;;;;;5009257;28;20261;-79
2023/06/09 10:29:09;;;;;;;10.98;10.68;;;27.70;99.90;;;;;;5016909;28;20236;-78
2023/06/09 10:31:44;;;;;;;11.00;10.70;;;27.40;99.90;;;;;;5026274;28;20267;-79
2023/06/09 10:34:21;;;;;;;10.68;10.38;;;27.10;99.90;;;;;;5005437;28;20228;-80
2023/06/09 10:36:53;;;;;;;11.10;10.80;;;26.70;99.90;;;;;;5005130;28;20208;-80
2023/06/09 10:39:23;;;;;;;11.25;10.95;;;26.70;99.90;;;;;;5005137;28;20268;-79
2023/06/09 10:42:01;;;;;;;11.45;11.15;;;27.00;99.90;;;;;;5005863;28;20229;-81
2023/06/09 10:44:40;;;;;;;11.40;11.10;;;27.40;99.90;;;;;;5005821;28;20268;-79
2023/06/09 10:47:11;;;;;;;11.80;11.40;;;27.70;99.90;;;;;;5005251;28;20216;-79
2023/06/09 10:49:43;;;;;;;11.40;11.10;;;27.90;99.90;;;;;;5005231;28;20376;-79
2023/06/09 10:52:56;;;;;;;11.85;11.45;;;28.10;99.90;;;;;;5006408;28;20284;-80
2023/06/09 10:55:27;;;;;;;11.18;10.88;;;28.60;99.90;;;;;;5006209;28;20228;-78
2023/06/09 10:57:57;;;;;;;11.00;10.70;;;28.50;99.90;;;;;;5007930;28;20236;-81
2023/06/09 11:00:29;;;;;;;11.02;10.73;;;28.50;99.90;;;;;;5007589;28;20297;-80
2023/06/09 11:03:39;;;;;;;10.88;10.57;;;28.90;99.90;;;;;;5011659;28;20244;-78
2023/06/09 11:06:08;;;;;;;11.00;10.70;;;29.00;99.90;;;;;;5007783;28;20247;-80
2023/06/09 11:09:11;;;;;;;11.32;11.02;;;29.10;99.90;;;;;;5008938;28;20280;-80
2023/06/09 11:11:57;;;;;;;11.10;10.80;;;28.80;99.90;;;;;;5008064;28;20972;-78
2023/06/09 11:14:55;;;;;;;11.02;10.73;;;28.00;99.90;;;;;;5006735;28;20300;-79
2023/06/09 11:17:33;;;;;;;11.30;11.00;;;27.50;99.90;;;;;;5007933;28;20232;-80
2023/06/09 11:20:14;;;;;;;11.25;10.95;;;27.00;99.90;;;;;;5011797;28;20281;-79
2023/06/09 11:23:07;;;;;;;11.55;11.18;;;26.90;99.90;;;;;;5012368;28;20231;-80
2023/06/09 11:25:42;;;;;;;11.60;11.20;;;26.70;99.90;;;;;;5009554;28;20275;-80
2023/06/09 11:28:25;;;;;;;11.38;11.07;;;26.60;99.90;;;;;;5005920;28;20232;-80
2023/06/09 11:31:13;;;;;;;11.30;11.00;;;27.10;99.90;;;;;;5006593;28;20244;-81
2023/06/09 11:33:53;;;;;;;11.10;10.80;;;27.80;99.90;;;;;;5003681;28;20322;-82
2023/06/09 11:36:30;;;;;;;11.20;10.90;;;28.40;99.90;;;;;;5004428;28;20298;-81
2023/06/09 11:39:07;;;;;;;11.20;10.90;;;28.20;99.90;;;;;;5004842;28;20236;-82
2023/06/09 11:41:36;;;;;;;11.30;11.00;;;28.50;99.90;;;;;;5004701;28;20220;-80
2023/06/09 11:44:05;;;;;;;11.23;10.93;;;29.00;99.90;;;;;;5003647;28;20304;-82
2023/06/09 11:47:06;;;;;;;11.63;11.27;;;29.60;99.90;;;;;;5086211;22;20242;-90
2023/06/09 11:49:34;;;;;;;11.90;11.50;;;30.10;99.90;;;;;;5062015;28;20221;-87
2023/06/09 11:52:06;;;;;;;11.43;11.13;;;30.30;99.90;;;;;;5061561;28;20234;-87
2023/06/09 11:54:49;;;;;;;11.40;11.10;;;30.40;99.90;;;;;;5062317;28;20237;-85
2023/06/09 11:57:18;;;;;;;11.40;11.10;;;30.80;99.90;;;;;;5041862;28;20223;-87
2023/06/09 12:00:19;;;;;;;11.57;11.18;;;31.10;99.90;;;;;;5044211;28;20239;-87
2023/06/09 12:03:42;;;;;;;11.40;11.10;;;31.30;99.90;;;;;;5041202;28;20223;-88
2023/06/09 12:14:09;;;;;;;11.20;10.90;;;28.90;99.90;;;;;;4946937;28;20318;-85
2023/06/09 12:17:11;;;;;;;11.10;10.80;;;28.00;99.90;;;;;;5030495;28;20242;-86
2023/06/09 12:20:26;;;;;;;11.18;10.88;;;27.30;99.90;;;;;;5040811;28;20231;-87
2023/06/09 12:27:13;;;;;;;11.20;10.90;;;26.30;99.90;;;;;;5041632;28;20227;-87
2023/06/09 12:33:33;;;;;;;10.82;10.52;;;25.60;99.90;;;;;;5041394;28;20236;-88
2023/06/09 12:39:24;;;;;;;11.18;10.88;;;24.70;99.90;;;;;;5053319;28;20207;-88
2023/06/09 12:43:06;;;;;;;11.27;10.98;;;24.60;99.90;;;;;;5059685;28;20228;-88
2023/06/09 12:49:25;;;;;;;11.32;11.02;;;24.50;99.90;;;;;;5060766;28;20270;-88
2023/06/09 12:52:44;;;;;;;11.20;10.90;;;24.30;99.90;;;;;;5060573;28;20207;-87
2023/06/09 13:02:01;;;;;;;11.00;10.70;;;23.70;99.90;;;;;;5038786;28;20282;-88
2023/06/09 13:04:34;;;;;;;11.20;10.90;;;23.70;99.90;;;;;;5039388;28;20270;-85
2023/06/09 13:10:10;;;;;;;10.85;10.55;;;23.50;99.90;;;;;;5046573;28;20203;-86
2023/06/09 13:13:40;;;;;;;10.60;10.30;;;23.60;99.90;;;;;;5058486;28;20291;-89
2023/06/09 13:16:51;;;;;;;10.80;10.50;;;23.70;99.90;;;;;;5016006;28;20309;-88
2023/06/09 13:22:13;;;;;;;10.80;10.50;;;23.90;99.90;;;;;;5045309;28;20230;-85
2023/06/09 13:24:54;;;;;;;10.70;10.40;;;23.90;99.90;;;;;;5044997;28;20303;-86
2023/06/09 13:27:58;;;;;;;10.75;10.45;;;24.00;99.90;;;;;;5044393;28;20231;-86
2023/06/09 13:31:22;;;;;;;11.18;10.88;;;24.10;99.90;;;;;;5044100;28;20250;-87
2023/06/09 13:34:48;;;;;;;11.10;10.80;;;24.40;99.90;;;;;;5039804;28;20234;-87
2023/06/09 13:37:43;;;;;;;11.45;11.15;;;24.60;99.90;;;;;;5044106;28;20238;-87
2023/06/09 13:41:15;;;;;;;11.30;11.00;;;24.60;99.90;;;;;;5045236;28;20287;-88
2023/06/09 13:44:04;;;;;;;11.40;11.10;;;24.70;99.90;;;;;;5060513;28;20254;-89
2023/06/09 13:46:37;;;;;;;11.50;11.20;;;25.00;99.90;;;;;;5056166;28;20225;-87
2023/06/09 13:49:25;;;;;;;11.35;11.05;;;25.20;99.90;;;;;;5050778;28;20260;-87
2023/06/09 13:52:14;;;;;;;11.20;10.90;;;25.30;99.90;;;;;;5040624;28;20220;-86
2023/06/09 13:54:48;;;;;;;11.27;10.98;;;25.40;99.90;;;;;;5060678;28;20223;-87
2023/06/09 13:57:50;;;;;;;;;;;;;;;;;;;;;
2023/06/09 14:00:56;;;;;;;11.50;11.20;;;25.50;99.90;;;;;;5062822;28;20207;-86
2023/06/09 14:10:23;;;;;;;11.00;10.70;;;25.60;99.90;;;;;;4918952;29;20247;-87
2023/06/09 14:16:46;;;;;;;;;;;;;;;;;;;;;
2023/06/09 14:19:23;;;;;;;11.20;10.90;;;25.90;99.90;;;;;;5043299;28;20219;-86
2023/06/09 14:22:26;;;;;;;11.15;10.85;;;26.10;99.90;;;;;;5043707;28;20247;-87
2023/06/09 15:34:49;;;;;;;11.07;10.77;;;26.60;99.90;;;;;;4900211;28;20231;-88
2023/06/09 15:37:17;;;;;;;11.00;10.70;;;26.50;99.90;;;;;;5008803;28;20268;-89
2023/06/09 15:39:45;;;;;;;10.82;10.52;;;26.50;99.90;;;;;;5005025;28;20243;-89
2023/06/09 15:42:17;;;;;;;11.13;10.82;;;26.50;99.90;;;;;;5003650;28;20233;-89
2023/06/09 15:44:45;;;;;;;10.95;10.65;;;26.60;99.90;;;;;;5003263;28;20231;-89
2023/06/09 15:47:27;;;;;;;11.05;10.75;;;26.70;99.90;;;;;;5007781;28;20247;-89
2023/06/09 15:50:03;;;;;;;10.75;10.45;;;26.80;99.90;;;;;;5022301;28;20230;-89
2023/06/09 15:52:31;;;;;;;11.05;10.75;;;26.90;99.90;;;;;;5021837;28;20258;-89
2023/06/09 15:55:00;;;;;;;10.85;10.55;;;27.00;99.90;;;;;;5022016;28;20275;-89
2023/06/09 15:57:29;;;;;;;11.45;11.13;;;27.10;99.90;;;;;;5022125;28;20334;-89
2023/06/09 15:59:59;;;;;;;11.05;10.75;;;27.20;99.90;;;;;;5022394;28;20236;-89
2023/06/09 16:03:04;;;;;;;11.18;10.88;;;27.40;99.90;;;;;;5022475;28;20235;-89
2023/06/09 16:05:33;;;;;;;11.25;10.95;;;27.60;99.90;;;;;;5037606;28;20224;-89
2023/06/09 16:08:02;;;;;;;10.98;10.68;;;27.80;99.90;;;;;;5029784;28;20346;-89
2023/06/09 16:10:32;;;;;;;11.00;10.70;;;27.80;99.90;;;;;;5029149;28;20242;-89
2023/06/09 16:13:04;;;;;;;11.60;11.20;;;27.80;99.90;;;;;;5026595;28;20246;-89
2023/06/09 16:15:33;;;;;;;11.23;10.93;;;27.90;99.90;;;;;;5022259;28;20247;-89
2023/06/09 16:18:37;;;;;;;10.98;10.68;;;27.90;99.90;;;;;;5022302;28;20315;-89
2023/06/09 16:21:06;;;;;;;10.90;10.60;;;27.90;99.90;;;;;;5022333;28;20251;-89
2023/06/09 16:23:35;;;;;;;10.85;10.55;;;27.80;99.90;;;;;;5021887;28;20234;-89
2023/06/09 16:26:05;;;;;;;10.90;10.60;;;27.90;99.90;;;;;;5021511;28;20239;-89